»·PEaware :: N698SP KSMX-KBFL

N698SP :: KSMX-KBFL

FLIGHT INFORMATION

Flight Status: Arrived
Operator: Privately registered:
United States
More flights under this callsign
Pilot: Dominik G. (31997)
Aircraft: CESSNA 172 SKYHAWK
(C172)
More flights by this aircraft type
Origin: KSMX Santa Maria Pub/Capt Hancock
United States
Destination: KBFL Meadows
United States
More flights between these airports :: More routes between these airports
Route: KSMX KBFL
File this flight plan on PilotEdge
Remarks:
Altitude:
(Current/Filed)
7,500ft
Speed:
(Current/Filed)
104kts
Departed: 27-Nov-20 05:07 PM
Arrived: 27-Nov-20 05:57 PM
Distance/Time
Traveled:
76nm/0:49
Distance/Time
To Go:
Arrived

Flight Plot

Page will automatically refresh every two minutes.


Map Options




Map Legend


Flown Route
Filed Route
Departure Airport
Arrival Airport
Navaid (VOR, NDB)
Fix

Horizontal Profiles

Position Reports

Time Latitude Longitude Heading Altitude Ground
Speed
27-Nov-20 16:45 34.900720 -120.451574 228 265ft 0kts
27-Nov-20 16:46 34.900720 -120.451574 228 265ft 0kts
27-Nov-20 16:47 34.900720 -120.451574 228 265ft 0kts
27-Nov-20 16:48 34.900720 -120.451574 228 265ft 0kts
27-Nov-20 16:49 34.900720 -120.451574 228 265ft 0kts
27-Nov-20 16:50 34.900720 -120.451574 228 265ft 0kts
27-Nov-20 16:51 34.900720 -120.451574 228 265ft 0kts
27-Nov-20 16:52 34.900720 -120.451574 228 265ft 0kts
27-Nov-20 16:52 34.900720 -120.451574 228 265ft 0kts
27-Nov-20 16:54 34.900720 -120.451574 228 265ft 0kts
27-Nov-20 16:54 34.900720 -120.451574 228 265ft 0kts
27-Nov-20 16:56 34.900721 -120.451574 228 265ft 0kts
27-Nov-20 16:57 34.900721 -120.451574 228 265ft 0kts
27-Nov-20 16:57 34.900720 -120.451574 228 265ft 0kts
27-Nov-20 16:59 34.900720 -120.451574 228 265ft 0kts
27-Nov-20 16:59 34.900720 -120.451574 228 265ft 0kts
27-Nov-20 17:01 34.900720 -120.451574 228 265ft 0kts
27-Nov-20 17:01 34.900720 -120.451574 228 265ft 0kts
27-Nov-20 17:02 34.899269 -120.451125 133 265ft 16kts
27-Nov-20 17:03 34.894472 -120.445399 148 265ft 16kts
27-Nov-20 17:04 34.893396 -120.445209 173 265ft 0kts
27-Nov-20 17:05 34.892956 -120.445367 216 265ft 4kts
27-Nov-20 17:06 34.901709 -120.457113 309 847ft 70kts
27-Nov-20 17:07 34.914516 -120.475471 303 1921ft 72kts
27-Nov-20 17:08 34.922273 -120.455922 84 2835ft 91kts
27-Nov-20 17:09 34.916345 -120.424455 99 3744ft 95kts
27-Nov-20 17:10 34.915485 -120.394265 62 4644ft 85kts
27-Nov-20 17:11 34.924044 -120.368502 61 5535ft 79kts
27-Nov-20 17:12 34.932104 -120.344775 62 6396ft 73kts
27-Nov-20 17:13 34.941951 -120.317595 62 6923ft 97kts
27-Nov-20 17:14 34.953874 -120.286293 62 7429ft 103kts
27-Nov-20 17:15 34.966907 -120.253213 62 7605ft 114kts
27-Nov-20 17:16 34.980971 -120.218199 62 7602ft 114kts
27-Nov-20 17:17 34.995112 -120.183291 61 7598ft 115kts
27-Nov-20 17:18 35.009492 -120.148123 61 7594ft 116kts
27-Nov-20 17:19 35.024109 -120.112753 61 7590ft 116kts
27-Nov-20 17:20 35.039436 -120.077451 61 7589ft 119kts
27-Nov-20 17:21 35.056126 -120.042130 61 7593ft 120kts
27-Nov-20 17:22 35.072962 -120.006604 61 7596ft 120kts
27-Nov-20 17:23 35.089282 -119.971010 64 7599ft 120kts
27-Nov-20 17:24 35.104619 -119.934656 64 7600ft 120kts
27-Nov-20 17:25 35.119981 -119.898397 64 7598ft 120kts
27-Nov-20 17:26 35.134915 -119.863355 63 7587ft 109kts
27-Nov-20 17:27 35.148456 -119.831456 66 7580ft 103kts
27-Nov-20 17:28 35.160522 -119.799725 66 7577ft 102kts
27-Nov-20 17:29 35.172601 -119.768007 66 7576ft 103kts
27-Nov-20 17:30 35.184845 -119.735942 66 7575ft 104kts
27-Nov-20 17:31 35.197232 -119.703770 66 7573ft 104kts
27-Nov-20 17:32 35.208500 -119.671208 66 7574ft 103kts
27-Nov-20 17:33 35.219367 -119.638954 66 7575ft 102kts
27-Nov-20 17:34 35.230325 -119.606820 65 7575ft 101kts
27-Nov-20 17:35 35.241304 -119.575012 65 7575ft 101kts
27-Nov-20 17:36 35.252407 -119.543224 65 7574ft 101kts
27-Nov-20 17:37 35.263550 -119.511671 65 7573ft 101kts
27-Nov-20 17:38 35.274775 -119.480103 65 7572ft 101kts
27-Nov-20 17:39 35.286046 -119.448577 65 7571ft 101kts
27-Nov-20 17:40 35.297942 -119.415427 65 7276ft 103kts
27-Nov-20 17:41 35.309476 -119.383132 65 6771ft 102kts
27-Nov-20 17:42 35.320869 -119.351002 65 6267ft 102kts
27-Nov-20 17:43 35.332338 -119.319160 65 5771ft 102kts
27-Nov-20 17:44 35.343515 -119.287987 65 5269ft 97kts
27-Nov-20 17:45 35.354259 -119.257794 65 4769ft 96kts
27-Nov-20 17:46 35.364849 -119.227833 65 4271ft 95kts
27-Nov-20 17:47 35.375364 -119.197971 65 3775ft 95kts
27-Nov-20 17:48 35.390644 -119.171544 51 3274ft 95kts
27-Nov-20 17:49 35.405923 -119.147408 50 2770ft 86kts
27-Nov-20 17:50 35.419714 -119.124074 72 2265ft 84kts
27-Nov-20 17:51 35.423107 -119.095442 75 1758ft 85kts
27-Nov-20 17:52 35.425539 -119.066766 98 1438ft 82kts
27-Nov-20 17:53 35.410628 -119.045714 132 1296ft 73kts
27-Nov-20 17:54 35.416138 -119.035377 330 938ft 56kts
27-Nov-20 17:55 35.428397 -119.049698 321 563ft 62kts
27-Nov-20 17:56 35.436643 -119.057782 38 496ft 8kts
27-Nov-20 17:57 35.437891 -119.056680 46 503ft 0kts

Navigation Log

Ident Type
Flight plan parsing failed, navigation log unavailable